createdAt,value
2023-04-15T00:01:02.791Z,5.72
2023-04-15T00:03:30.021Z,5.10
2023-04-15T00:05:58.695Z,6.53
2023-04-15T00:08:25.713Z,6.10
2023-04-15T00:10:53.020Z,8.57
2023-04-15T00:13:20.454Z,7.22
2023-04-15T00:15:47.548Z,9.75
2023-04-15T00:18:14.786Z,7.50
2023-04-15T00:20:41.626Z,7.43
2023-04-15T00:23:08.256Z,5.07
2023-04-15T00:25:35.031Z,5.90
2023-04-15T00:28:01.756Z,6.32
2023-04-15T00:30:28.471Z,7.40
2023-04-15T00:32:55.497Z,8.57
2023-04-15T00:35:22.618Z,10.50
2023-04-15T00:37:49.245Z,9.15
2023-04-15T00:40:18.891Z,8.02
2023-04-15T00:42:45.758Z,11.27
2023-04-15T00:45:13.251Z,5.68
2023-04-15T00:47:43.132Z,7.35
2023-04-15T00:50:11.113Z,6.68
2023-04-15T00:52:37.832Z,5.35
2023-04-15T00:55:05.541Z,7.45
2023-04-15T00:57:32.454Z,9.82
2023-04-15T01:00:00.511Z,5.38
2023-04-15T01:02:27.689Z,7.88
2023-04-15T01:04:54.759Z,7.03
2023-04-15T01:07:21.504Z,9.73
2023-04-15T01:09:48.239Z,5.10
2023-04-15T01:12:17.339Z,6.60
2023-04-15T01:14:43.999Z,6.13
2023-04-15T01:17:10.822Z,6.45
2023-04-15T01:19:37.668Z,5.75
2023-04-15T01:22:05.724Z,8.40
2023-04-15T01:24:34.160Z,7.07
2023-04-15T01:27:00.808Z,6.90
2023-04-15T01:29:28.000Z,4.78
2023-04-15T01:31:56.993Z,7.18
2023-04-15T01:34:23.735Z,5.28
2023-04-15T01:36:50.463Z,4.32
2023-04-15T01:39:17.080Z,5.38
2023-04-15T01:41:44.188Z,6.43
2023-04-15T01:44:11.205Z,4.50
2023-04-15T01:46:37.956Z,5.75
2023-04-15T01:49:04.758Z,3.80
2023-04-15T01:51:32.274Z,4.40
2023-04-15T01:53:58.962Z,5.00
2023-04-15T01:56:25.597Z,7.38
2023-04-15T01:58:52.794Z,7.40
2023-04-15T02:01:19.904Z,3.92
2023-04-15T02:03:48.054Z,5.32
2023-04-15T02:06:14.997Z,5.93
2023-04-15T02:08:41.569Z,4.35
2023-04-15T02:11:08.461Z,5.80
2023-04-15T02:13:35.159Z,4.20
2023-04-15T02:16:02.012Z,7.53
2023-04-15T02:18:28.833Z,5.78
2023-04-15T02:20:57.371Z,4.95
2023-04-15T02:23:24.522Z,6.80
2023-04-15T02:25:53.745Z,6.30
2023-04-15T02:28:22.060Z,5.60
2023-04-15T02:30:53.328Z,7.00
2023-04-15T02:33:21.858Z,6.90
2023-04-15T02:35:48.487Z,6.78
2023-04-15T02:38:16.922Z,10.07
2023-04-15T02:40:43.920Z,7.82
2023-04-15T02:43:10.802Z,12.30
2023-04-15T02:45:37.500Z,8.70
2023-04-15T02:48:06.899Z,12.05
2023-04-15T02:50:33.639Z,7.75
2023-04-15T02:53:01.797Z,7.95
2023-04-15T02:55:29.158Z,7.05
2023-04-15T02:57:56.181Z,10.35
2023-04-15T03:00:25.353Z,7.07
2023-04-15T03:02:56.888Z,8.45
2023-04-15T03:05:25.644Z,9.60
2023-04-15T03:07:52.556Z,8.73
2023-04-15T03:10:19.479Z,8.40
2023-04-15T03:12:46.312Z,6.65
2023-04-15T03:15:12.924Z,8.38
2023-04-15T03:17:39.595Z,6.32
2023-04-15T03:20:07.236Z,5.63
2023-04-15T03:22:34.358Z,7.00
2023-04-15T03:25:01.112Z,6.78
2023-04-15T03:27:27.689Z,7.35
2023-04-15T03:29:54.319Z,5.93
2023-04-15T03:32:21.209Z,7.03
2023-04-15T03:34:47.858Z,6.57
2023-04-15T03:37:14.625Z,7.68
2023-04-15T03:39:41.895Z,6.18
2023-04-15T03:42:08.660Z,10.30
2023-04-15T03:44:35.267Z,6.10
2023-04-15T03:47:02.092Z,6.53
2023-04-15T03:49:28.779Z,5.45
2023-04-15T03:51:55.822Z,6.53
2023-04-15T03:54:22.400Z,8.48
2023-04-15T03:56:49.428Z,6.88
2023-04-15T03:59:16.105Z,7.13
2023-04-15T04:01:42.856Z,7.43
2023-04-15T04:04:09.600Z,6.47
2023-04-15T04:06:36.444Z,10.90
2023-04-15T04:09:03.242Z,8.30
2023-04-15T04:11:30.084Z,5.35
2023-04-15T04:13:56.757Z,5.20
2023-04-15T04:16:23.459Z,5.03
2023-04-15T04:18:50.813Z,4.68
2023-04-15T04:21:17.596Z,6.85
2023-04-15T04:23:44.225Z,4.63
2023-04-15T04:26:11.108Z,5.68
2023-04-15T04:28:39.637Z,4.55
2023-04-15T04:31:09.554Z,6.22
2023-04-15T04:33:36.226Z,6.63
2023-04-15T04:36:02.959Z,4.63
2023-04-15T04:38:29.659Z,5.13
2023-04-15T04:40:56.466Z,4.38
2023-04-15T04:43:23.111Z,4.53
2023-04-15T04:45:50.023Z,4.85
2023-04-15T04:48:17.116Z,6.32
2023-04-15T04:50:44.934Z,3.72
2023-04-15T04:53:12.085Z,4.43
2023-04-15T04:55:38.749Z,6.30
2023-04-15T04:58:05.360Z,5.40
2023-04-15T05:00:32.142Z,4.22
2023-04-15T05:02:59.113Z,3.97
2023-04-15T05:05:26.212Z,5.18
2023-04-15T05:07:53.456Z,3.75
2023-04-15T05:10:20.193Z,3.60
2023-04-15T05:12:46.795Z,7.75
2023-04-15T05:15:13.391Z,2.05
2023-04-15T05:17:39.995Z,3.80
2023-04-15T05:20:07.962Z,3.72
2023-04-15T05:22:34.833Z,3.75
2023-04-15T05:25:01.740Z,3.67
2023-04-15T05:27:28.561Z,4.07
2023-04-15T05:29:55.410Z,6.45
2023-04-15T05:32:22.074Z,4.85
2023-04-15T05:34:48.795Z,3.53
2023-04-15T05:37:16.026Z,1.55
2023-04-15T05:39:43.610Z,3.15
2023-04-15T05:42:10.249Z,2.83
2023-04-15T05:44:36.981Z,3.75
2023-04-15T05:47:03.726Z,3.50
2023-04-15T05:49:30.849Z,3.28
2023-04-15T05:51:57.488Z,5.15
2023-04-15T05:54:24.139Z,2.67
2023-04-15T05:56:50.801Z,2.15
2023-04-15T05:59:17.410Z,1.98
2023-04-15T06:01:44.195Z,3.47
2023-04-15T06:04:11.763Z,4.22
2023-04-15T06:06:38.759Z,2.50
2023-04-15T06:09:05.475Z,2.55
2023-04-15T06:11:32.291Z,3.58
2023-04-15T06:13:58.891Z,5.15
2023-04-15T06:16:25.593Z,4.03
2023-04-15T06:18:52.278Z,4.50
2023-04-15T06:21:19.420Z,3.17
2023-04-15T06:23:46.735Z,8.02
2023-04-15T06:26:13.557Z,3.35
2023-04-15T06:28:40.671Z,2.63
2023-04-15T06:31:07.338Z,4.13
2023-04-15T06:33:34.440Z,2.28
2023-04-15T06:36:01.561Z,9.45
2023-04-15T06:38:28.482Z,4.65
2023-04-15T06:40:55.090Z,3.55
2023-04-15T06:43:21.738Z,4.72
2023-04-15T06:45:48.371Z,4.20
2023-04-15T06:48:14.965Z,4.50
2023-04-15T06:50:41.924Z,4.93
2023-04-15T06:53:08.755Z,5.53
2023-04-15T06:55:35.512Z,2.80
2023-04-15T06:58:02.154Z,5.03
2023-04-15T07:00:28.899Z,2.88
2023-04-15T07:02:55.820Z,4.60
2023-04-15T07:05:22.742Z,5.63
2023-04-15T07:07:49.511Z,2.60
2023-04-15T07:10:16.338Z,2.53
2023-04-15T07:12:43.025Z,2.60
2023-04-15T07:15:10.139Z,5.03
2023-04-15T07:17:37.345Z,3.30
2023-04-15T07:20:05.071Z,5.47
2023-04-15T07:22:31.681Z,2.17
2023-04-15T07:24:58.322Z,3.80
2023-04-15T07:27:25.068Z,4.13
2023-04-15T07:29:52.370Z,5.47
2023-04-15T07:32:19.634Z,2.05
2023-04-15T07:34:46.609Z,3.78
2023-04-15T07:37:13.814Z,1.25
2023-04-15T07:39:40.544Z,2.85
2023-04-15T07:42:07.462Z,3.03
2023-04-15T07:44:34.038Z,2.42
2023-04-15T07:47:00.851Z,3.53
2023-04-15T07:49:28.786Z,2.72
2023-04-15T07:51:58.021Z,2.47
2023-04-15T07:54:24.886Z,1.20
2023-04-15T07:56:51.592Z,1.52
2023-04-15T07:59:18.250Z,4.45
2023-04-15T08:01:45.120Z,1.25
2023-04-15T08:04:11.945Z,2.70
2023-04-15T08:06:39.968Z,2.60
2023-04-15T08:09:08.289Z,0.65
2023-04-15T08:11:35.007Z,0.93
2023-04-15T08:14:02.074Z,1.80
2023-04-15T08:16:29.661Z,1.70
2023-04-15T08:18:57.233Z,2.30
2023-04-15T08:21:24.004Z,1.00
2023-04-15T08:23:52.961Z,0.30
2023-04-15T08:26:20.974Z,1.35
2023-04-15T08:28:48.579Z,0.55
2023-04-15T08:31:17.055Z,0.63
2023-04-15T08:33:43.784Z,0.22
2023-04-15T08:36:11.223Z,0.30
2023-04-15T08:38:38.111Z,0.70
2023-04-15T08:41:11.836Z,7.65
2023-04-15T08:43:49.432Z,2.28
2023-04-15T08:46:16.933Z,0.68
2023-04-15T08:48:45.218Z,1.10
2023-04-15T08:51:16.082Z,2.92
2023-04-15T08:53:47.601Z,2.75
2023-04-15T08:56:16.958Z,0.50
2023-04-15T08:58:47.185Z,0.93
2023-04-15T09:01:14.080Z,0.45
2023-04-15T09:03:42.080Z,0.50
2023-04-15T09:06:09.244Z,1.27
2023-04-15T09:08:36.036Z,1.67
2023-04-15T09:11:03.822Z,0.95
2023-04-15T09:13:30.668Z,0.45
2023-04-15T09:16:00.091Z,0.65
2023-04-15T09:18:34.830Z,0.90
2023-04-15T09:21:06.158Z,2.30
2023-04-15T09:23:33.644Z,4.20
2023-04-15T09:26:01.427Z,0.73
2023-04-15T09:28:28.955Z,1.38
2023-04-15T09:30:56.956Z,1.20
2023-04-15T09:33:24.872Z,1.50
2023-04-15T09:35:59.540Z,2.25
2023-04-15T09:38:26.364Z,0.93
2023-04-15T09:40:53.419Z,0.90
2023-04-15T09:43:20.947Z,1.48
2023-04-15T09:45:51.817Z,0.95
2023-04-15T09:48:29.107Z,1.02
2023-04-15T09:50:58.567Z,1.50
2023-04-15T09:53:25.951Z,0.98
2023-04-15T09:55:58.147Z,0.85
2023-04-15T09:58:29.728Z,0.47
2023-04-15T10:00:58.263Z,0.20
2023-04-15T10:03:26.135Z,0.30
2023-04-15T10:05:57.216Z,0.20
2023-04-15T10:08:25.882Z,0.20
2023-04-15T10:10:53.844Z,2.78
2023-04-15T10:13:23.725Z,0.43
2023-04-15T10:15:58.256Z,1.10
2023-04-15T10:18:29.077Z,1.20
2023-04-15T10:20:56.130Z,2.20
2023-04-15T10:23:24.574Z,0.85
2023-04-15T10:25:54.577Z,1.27
2023-04-15T10:28:24.820Z,0.20
2023-04-15T10:30:53.726Z,0.60
2023-04-15T10:33:23.894Z,0.88
2023-04-15T10:35:51.849Z,1.52
2023-04-15T10:38:39.185Z,1.17
2023-04-15T10:41:26.741Z,1.55
2023-04-15T10:44:01.503Z,1.80
2023-04-15T10:46:45.897Z,1.38
2023-04-15T10:49:14.005Z,0.40
2023-04-15T10:51:43.798Z,0.30
2023-04-15T10:54:31.445Z,1.67
2023-04-15T10:57:01.683Z,1.35
2023-04-15T10:59:32.437Z,1.75
2023-04-15T11:02:04.041Z,0.40
2023-04-15T11:05:07.566Z,0.20
2023-04-15T11:07:48.690Z,0.20
2023-04-15T11:10:18.125Z,1.30
2023-04-15T11:12:45.983Z,0.55
2023-04-15T11:15:27.817Z,2.53
2023-04-15T11:17:54.589Z,0.30
2023-04-15T11:20:21.373Z,1.23
2023-04-15T11:22:53.452Z,0.70
2023-04-15T11:25:40.210Z,2.20
2023-04-15T11:28:07.782Z,1.90
2023-04-15T11:30:37.704Z,0.65
2023-04-15T11:33:09.377Z,0.57
2023-04-15T11:35:36.514Z,0.68
2023-04-15T11:38:09.475Z,0.30
2023-04-15T11:40:36.583Z,0.73
2023-04-15T11:43:11.562Z,0.73
2023-04-15T11:45:47.824Z,3.08
2023-04-15T11:48:15.127Z,0.20
2023-04-15T11:50:41.784Z,0.25
2023-04-15T11:53:10.615Z,0.40
2023-04-15T11:55:44.912Z,2.53
2023-04-15T11:58:20.281Z,0.35
2023-04-15T12:00:54.616Z,3.25
2023-04-15T12:03:36.529Z,1.05
2023-04-15T12:06:22.620Z,2.20
2023-04-15T12:08:56.061Z,1.38
2023-04-15T12:11:32.592Z,1.05
2023-04-15T12:14:18.166Z,0.10
2023-04-15T12:16:50.051Z,1.15
2023-04-15T12:19:26.878Z,0.28
2023-04-15T12:22:00.535Z,1.38
2023-04-15T12:24:27.649Z,0.88
2023-04-15T12:26:58.005Z,0.65
2023-04-15T12:29:29.348Z,0.40
2023-04-15T12:31:59.893Z,2.15
2023-04-15T12:34:37.874Z,2.58
2023-04-15T12:37:06.792Z,2.00
2023-04-15T12:39:41.277Z,1.00
2023-04-15T12:42:09.231Z,0.43
2023-04-15T12:44:36.950Z,1.27
2023-04-15T12:47:03.992Z,0.20
2023-04-15T12:49:32.708Z,0.15
2023-04-15T12:52:01.286Z,0.85
2023-04-15T12:54:28.609Z,1.65
2023-04-15T12:56:56.059Z,0.93
2023-04-15T12:59:24.282Z,1.60
2023-04-15T13:01:53.555Z,0.47
2023-04-15T13:04:21.450Z,0.38
2023-04-15T13:06:48.354Z,0.30
2023-04-15T13:09:15.851Z,3.13
2023-04-15T13:11:42.873Z,4.10
2023-04-15T13:14:11.728Z,0.45
2023-04-15T13:16:38.727Z,0.20
2023-04-15T13:19:05.880Z,0.20
2023-04-15T13:21:35.726Z,0.20
2023-04-15T13:24:03.153Z,0.13
2023-04-15T13:26:30.466Z,3.60
2023-04-15T13:28:57.019Z,0.77
2023-04-15T13:31:23.597Z,1.55
2023-04-15T13:33:50.414Z,2.75
2023-04-15T13:36:17.417Z,1.30
2023-04-15T13:38:43.991Z,2.65
2023-04-15T13:41:11.053Z,1.95
2023-04-15T13:43:37.778Z,1.38
2023-04-15T13:46:04.556Z,0.20
2023-04-15T13:48:31.702Z,1.48
2023-04-15T13:50:58.299Z,2.88
2023-04-15T13:53:28.213Z,1.00
2023-04-15T13:56:07.561Z,2.45
2023-04-15T13:58:34.389Z,1.98
2023-04-15T14:01:02.524Z,0.47
2023-04-15T14:03:31.189Z,1.63
2023-04-15T14:05:58.571Z,1.50
2023-04-15T14:08:25.846Z,0.17
2023-04-15T14:10:52.884Z,1.45
2023-04-15T14:13:19.801Z,0.57
2023-04-15T14:15:46.783Z,0.43
2023-04-15T14:18:13.470Z,0.38
2023-04-15T14:20:40.128Z,1.92
2023-04-15T14:23:07.548Z,0.52
2023-04-15T14:25:34.384Z,1.63
2023-04-15T14:28:02.181Z,0.10
2023-04-15T14:30:29.147Z,0.57
2023-04-15T14:32:55.868Z,0.20
2023-04-15T14:35:24.695Z,1.60
2023-04-15T14:37:51.715Z,0.50
2023-04-15T14:40:18.477Z,0.55
2023-04-15T14:42:45.449Z,1.00
2023-04-15T14:45:12.194Z,0.10
2023-04-15T14:47:38.892Z,0.80
2023-04-15T14:50:06.064Z,0.10
2023-04-15T14:52:39.046Z,0.98
2023-04-15T14:55:13.826Z,1.05
2023-04-15T14:57:41.913Z,2.63
2023-04-15T15:00:10.539Z,1.40
2023-04-15T15:02:40.515Z,0.40
2023-04-15T15:05:08.317Z,1.63
2023-04-15T15:07:37.168Z,0.57
2023-04-15T15:10:04.931Z,0.30
2023-04-15T15:12:32.667Z,0.63
2023-04-15T15:15:01.701Z,0.20
2023-04-15T15:17:30.162Z,1.17
2023-04-15T15:19:57.005Z,0.20
2023-04-15T15:22:23.754Z,3.92
2023-04-15T15:24:50.656Z,0.25
2023-04-15T15:27:17.540Z,0.10
2023-04-15T15:29:44.218Z,0.10
2023-04-15T15:32:10.820Z,0.38
2023-04-15T15:34:37.518Z,4.75
2023-04-15T15:37:04.185Z,1.10
2023-04-15T15:39:31.144Z,0.95
2023-04-15T15:41:57.907Z,0.20
2023-04-15T15:44:24.536Z,0.40
2023-04-15T15:46:51.405Z,1.33
2023-04-15T15:49:18.311Z,0.70
2023-04-15T15:51:46.021Z,1.50
2023-04-15T15:54:12.871Z,1.85
2023-04-15T15:56:39.641Z,0.25
2023-04-15T15:59:06.562Z,0.47
2023-04-15T16:01:33.670Z,0.63
2023-04-15T16:04:00.989Z,1.48
2023-04-15T16:06:28.311Z,1.10
2023-04-15T16:08:55.018Z,2.38
2023-04-15T16:11:21.698Z,2.05
2023-04-15T16:13:48.407Z,2.05
2023-04-15T16:16:15.222Z,2.55
2023-04-15T16:18:41.829Z,2.25
2023-04-15T16:21:08.919Z,0.77
2023-04-15T16:23:37.103Z,1.55
2023-04-15T16:26:03.849Z,0.60
2023-04-15T16:28:30.596Z,1.90
2023-04-15T16:30:57.648Z,1.85
2023-04-15T16:33:24.578Z,0.90
2023-04-15T16:35:51.553Z,4.38
2023-04-15T16:38:18.232Z,0.70
2023-04-15T16:40:44.893Z,0.63
2023-04-15T16:43:11.679Z,0.40
2023-04-15T16:45:38.781Z,0.93
2023-04-15T16:48:05.802Z,0.55
2023-04-15T16:50:32.580Z,0.40
2023-04-15T16:52:59.330Z,3.13
2023-04-15T16:55:26.261Z,0.30
2023-04-15T16:58:01.745Z,2.20
2023-04-15T17:00:30.350Z,1.10
2023-04-15T17:02:57.286Z,4.30
2023-04-15T17:05:24.336Z,0.95
2023-04-15T17:07:51.231Z,0.20
2023-04-15T17:10:18.063Z,2.30
2023-04-15T17:12:44.886Z,2.38
2023-04-15T17:15:11.575Z,3.40
2023-04-15T17:17:38.236Z,0.95
2023-04-15T17:20:05.358Z,1.67
2023-04-15T17:22:32.079Z,1.08
2023-04-15T17:24:58.831Z,1.40
2023-04-15T17:27:27.592Z,1.85
2023-04-15T17:29:54.585Z,2.88
2023-04-15T17:32:22.944Z,3.35
2023-04-15T17:34:51.396Z,1.60
2023-04-15T17:37:18.745Z,1.95
2023-04-15T17:39:45.570Z,0.20
2023-04-15T17:42:12.822Z,1.02
2023-04-15T17:44:39.939Z,0.47
2023-04-15T17:47:06.994Z,0.20
2023-04-15T17:49:34.393Z,3.50
2023-04-15T17:52:01.447Z,4.65
2023-04-15T17:54:28.216Z,0.40
2023-04-15T17:56:55.066Z,1.50
2023-04-15T17:59:21.691Z,2.63
2023-04-15T18:01:48.485Z,1.17
2023-04-15T18:04:15.811Z,5.28
2023-04-15T18:06:42.999Z,2.10
2023-04-15T18:09:09.696Z,0.52
2023-04-15T18:11:36.308Z,5.18
2023-04-15T18:14:03.962Z,1.27
2023-04-15T18:16:31.020Z,4.43
2023-04-15T18:18:57.795Z,3.35
2023-04-15T18:21:24.420Z,1.00
2023-04-15T18:23:51.128Z,2.90
2023-04-15T18:26:17.672Z,3.75
2023-04-15T18:28:44.257Z,0.93
2023-04-15T18:31:11.002Z,1.30
2023-04-15T18:33:39.486Z,1.50
2023-04-15T18:36:06.551Z,2.45
2023-04-15T18:38:33.344Z,3.03
2023-04-15T18:41:00.208Z,3.35
2023-04-15T18:43:27.013Z,3.88
2023-04-15T18:45:55.029Z,2.30
2023-04-15T18:48:22.140Z,0.30
2023-04-15T18:50:49.170Z,1.23
2023-04-15T18:53:15.883Z,2.60
2023-04-15T18:55:42.578Z,0.73
2023-04-15T18:58:09.544Z,3.65
2023-04-15T19:00:40.627Z,0.35
2023-04-15T19:03:08.213Z,0.28
2023-04-15T19:05:35.740Z,2.30
2023-04-15T19:08:02.593Z,2.03
2023-04-15T19:10:29.213Z,2.97
2023-04-15T19:12:55.831Z,2.35
2023-04-15T19:15:22.641Z,1.17
2023-04-15T19:17:49.456Z,3.40
2023-04-15T19:20:16.263Z,2.38
2023-04-15T19:22:43.385Z,1.92
2023-04-15T19:25:10.691Z,2.70
2023-04-15T19:27:38.389Z,0.40
2023-04-15T19:30:07.039Z,0.40
2023-04-15T19:32:34.443Z,1.30
2023-04-15T19:35:01.140Z,2.20
2023-04-15T19:37:27.705Z,2.38
2023-04-15T19:39:55.023Z,0.85
2023-04-15T19:42:22.021Z,1.33
2023-04-15T19:44:48.905Z,2.97
2023-04-15T19:47:15.561Z,1.55
2023-04-15T19:49:43.415Z,2.83
2023-04-15T19:52:10.029Z,1.40
2023-04-15T19:54:37.032Z,2.38
2023-04-15T19:57:03.883Z,1.50
2023-04-15T19:59:30.532Z,2.17
2023-04-15T20:01:57.411Z,1.40
2023-04-15T20:04:24.165Z,2.13
2023-04-15T20:06:51.103Z,2.05
2023-04-15T20:09:17.718Z,5.82
2023-04-15T20:12:09.530Z,1.25
2023-04-15T20:14:31.017Z,3.47
2023-04-15T20:16:57.682Z,2.33
2023-04-15T20:19:24.616Z,3.25
2023-04-15T20:21:52.521Z,1.45
2023-04-15T20:24:20.400Z,3.10
2023-04-15T20:26:47.264Z,1.65
2023-04-15T20:29:14.449Z,1.60
2023-04-15T20:31:41.294Z,9.93
2023-04-15T20:34:10.627Z,2.53
2023-04-15T20:36:38.510Z,1.02
2023-04-15T20:39:05.909Z,1.10
2023-04-15T20:41:32.849Z,2.58
2023-04-15T20:43:59.953Z,0.82
2023-04-15T20:46:27.688Z,0.93
2023-04-15T20:48:54.803Z,1.15
2023-04-15T20:51:21.560Z,1.48
2023-04-15T20:53:48.289Z,2.35
2023-04-15T20:56:14.904Z,2.10
2023-04-15T20:58:41.501Z,2.38
2023-04-15T21:01:08.142Z,0.93
2023-04-15T21:03:34.950Z,3.08
2023-04-15T21:06:01.699Z,2.28
2023-04-15T21:08:31.832Z,4.20
2023-04-15T21:10:58.599Z,5.07
2023-04-15T21:13:25.345Z,3.20
2023-04-15T21:15:54.100Z,2.88
2023-04-15T21:18:24.067Z,3.33
2023-04-15T21:21:01.370Z,2.58
2023-04-15T21:23:29.726Z,3.80
2023-04-15T21:25:57.576Z,4.10
2023-04-15T21:28:24.263Z,4.90
2023-04-15T21:30:51.136Z,7.55
2023-04-15T21:33:20.262Z,4.97
2023-04-15T21:35:46.893Z,3.13
2023-04-15T21:38:13.922Z,5.18
2023-04-15T21:40:41.047Z,2.55
2023-04-15T21:43:08.707Z,2.10
2023-04-15T21:45:36.777Z,3.80
2023-04-15T21:48:08.058Z,4.22
2023-04-15T21:50:36.925Z,2.05
2023-04-15T21:53:04.238Z,4.05
2023-04-15T21:55:30.939Z,3.15
2023-04-15T21:57:57.530Z,3.67
2023-04-15T22:00:24.298Z,2.25
2023-04-15T22:02:51.984Z,1.65
2023-04-15T22:05:19.221Z,3.25
2023-04-15T22:07:45.977Z,4.25
2023-04-15T22:10:12.745Z,2.45
2023-04-15T22:12:42.308Z,1.02
2023-04-15T22:15:09.287Z,2.53
2023-04-15T22:17:35.937Z,2.47
2023-04-15T22:20:02.970Z,1.10
2023-04-15T22:22:44.021Z,2.50
2023-04-15T22:25:11.812Z,3.45
2023-04-15T22:27:38.834Z,2.63
2023-04-15T22:30:06.034Z,2.53
2023-04-15T22:32:32.691Z,4.60
2023-04-15T22:34:59.334Z,1.67
2023-04-15T22:37:26.457Z,4.43
2023-04-15T22:39:53.019Z,2.15
2023-04-15T22:42:19.573Z,1.65
2023-04-15T22:44:46.251Z,1.27
2023-04-15T22:47:12.820Z,2.78
2023-04-15T22:49:41.173Z,2.97
2023-04-15T22:52:10.438Z,3.10
2023-04-15T22:54:39.402Z,2.25
2023-04-15T22:57:06.068Z,1.52
2023-04-15T22:59:32.668Z,1.05
2023-04-15T23:01:59.514Z,2.05
2023-04-15T23:04:28.295Z,1.25
2023-04-15T23:06:55.167Z,1.40
2023-04-15T23:09:22.652Z,1.50
2023-04-15T23:11:49.780Z,1.10
2023-04-15T23:14:16.780Z,1.80
2023-04-15T23:16:43.388Z,0.75
2023-04-15T23:19:10.642Z,2.33
2023-04-15T23:21:37.894Z,1.42
2023-04-15T23:24:04.491Z,0.88
2023-04-15T23:26:31.584Z,0.82
2023-04-15T23:28:58.191Z,2.05
2023-04-15T23:31:25.024Z,0.65
2023-04-15T23:33:51.806Z,1.48
2023-04-15T23:36:18.455Z,1.13
2023-04-15T23:38:45.179Z,1.25
2023-04-15T23:41:12.245Z,1.27
2023-04-15T23:43:39.023Z,2.45
2023-04-15T23:46:05.843Z,0.80
2023-04-15T23:48:32.694Z,1.55
2023-04-15T23:50:59.499Z,0.40
2023-04-15T23:53:26.194Z,1.85
2023-04-15T23:55:52.747Z,2.90
2023-04-15T23:58:19.257Z,1.30
